This is the latest recevied weather packets stored in our database for station/object DG1GMY-10. If no packets are shown the sender has not sent any weather packets the latest 10 day(s).
| Time | Temp. | Humidity | Pressure | Rain* | Wind** | Luminosity | Snow |
|---|---|---|---|---|---|---|---|
| 1787618183 | 16.67° C | 100% | 1013.5 hPa | - | - | - | - |
| 1787614583 | 17.78° C | 63% | 1013.1 hPa | - | - | - | - |
| 1787610983 | 17.78° C | 63% | 1013.4 hPa | - | - | - | - |
| 1787607383 | 18.33° C | 63% | 1014 hPa | - | - | - | - |
| 1787603783 | 18.33° C | 62% | 1014.5 hPa | - | - | - | - |
| 1787600183 | 18.89° C | 60% | 1014.8 hPa | - | - | - | - |
| 1787596583 | 20° C | 61% | 1015.3 hPa | - | - | - | - |
| 1787592983 | 21.11° C | 59% | 1016 hPa | - | - | - | - |
| 1787589383 | 21.67° C | 63% | 1016.5 hPa | - | - | - | - |
| 1787585783 | 21.11° C | 74% | 1016.9 hPa | - | - | - | - |
| 1787582182 | 23.89° C | 61% | 1018.1 hPa | - | - | - | - |
| 1787578582 | 29.44° C | 33% | 1017.7 hPa | - | - | - | - |
| 1787574982 | 29.44° C | 32% | 1018.4 hPa | - | - | - | - |
| 1787571382 | 26.67° C | 37% | 1018.8 hPa | - | - | - | - |
| 1787567782 | 24.44° C | 43% | 1019.7 hPa | - | - | - | - |
| 1787564182 | 22.22° C | 47% | 1020.6 hPa | - | - | - | - |
| 1787560582 | 19.44° C | 55% | 1021.2 hPa | - | - | - | - |
| 1787556982 | 17.78° C | 62% | 1021.6 hPa | - | - | - | - |
| 1787553381 | 15.56° C | 69% | 1021.7 hPa | - | - | - | - |
| 1787549781 | 13.89° C | 74% | 1022 hPa | - | - | - | - |
| 1787546180 | 13.89° C | 72% | 1021.7 hPa | - | - | - | - |
| 1787542580 | 14.44° C | 69% | 1022 hPa | - | - | - | - |
| 1787538980 | 13.89° C | 70% | 1022.6 hPa | - | - | - | - |
| 1787535380 | 15° C | 64% | 1022.7 hPa | - | - | - | - |
| 1787531780 | 16.11° C | 58% | 1022.7 hPa | - | - | - | - |
* Rain since midnight (hover to see other rain measurements)
** Current wind speed in m/s (hover to see current wind gust speed)